sensor_id;sensor_type;location;lat;lon;timestamp;temperature;humidity
37560;DHT22;23398;50.928;7.084;2022-09-03T00:00:51;20.50;42.30
37560;DHT22;23398;50.928;7.084;2022-09-03T00:03:32;20.50;42.30
37560;DHT22;23398;50.928;7.084;2022-09-03T00:06:17;20.50;42.50
37560;DHT22;23398;50.928;7.084;2022-09-03T00:11:23;20.40;42.50
37560;DHT22;23398;50.928;7.084;2022-09-03T00:14:03;20.40;42.50
37560;DHT22;23398;50.928;7.084;2022-09-03T00:16:45;20.40;42.60
37560;DHT22;23398;50.928;7.084;2022-09-03T00:19:17;20.60;42.80
37560;DHT22;23398;50.928;7.084;2022-09-03T00:21:50;20.50;42.80
37560;DHT22;23398;50.928;7.084;2022-09-03T00:24:20;20.30;42.80
37560;DHT22;23398;50.928;7.084;2022-09-03T00:26:51;20.40;42.90
37560;DHT22;23398;50.928;7.084;2022-09-03T00:29:22;20.30;42.90
37560;DHT22;23398;50.928;7.084;2022-09-03T00:31:56;20.40;43.00
37560;DHT22;23398;50.928;7.084;2022-09-03T00:34:28;20.40;43.10
37560;DHT22;23398;50.928;7.084;2022-09-03T00:36:55;20.30;43.00
37560;DHT22;23398;50.928;7.084;2022-09-03T00:39:23;20.30;43.00
37560;DHT22;23398;50.928;7.084;2022-09-03T00:52:17;20.30;43.30
37560;DHT22;23398;50.928;7.084;2022-09-03T00:57:37;20.20;43.30
37560;DHT22;23398;50.928;7.084;2022-09-03T01:00:16;20.20;43.30
37560;DHT22;23398;50.928;7.084;2022-09-03T01:13:49;20.00;43.70
37560;DHT22;23398;50.928;7.084;2022-09-03T01:16:36;20.60;44.20
37560;DHT22;23398;50.928;7.084;2022-09-03T01:28:14;19.80;44.10
37560;DHT22;23398;50.928;7.084;2022-09-03T01:33:38;19.60;44.00
37560;DHT22;23398;50.928;7.084;2022-09-03T01:38:39;19.50;44.20
37560;DHT22;23398;50.928;7.084;2022-09-03T01:58:40;19.10;45.40
37560;DHT22;23398;50.928;7.084;2022-09-03T02:01:21;19.00;45.40
37560;DHT22;23398;50.928;7.084;2022-09-03T02:03:47;19.00;45.70
37560;DHT22;23398;50.928;7.084;2022-09-03T02:06:15;18.90;45.50
37560;DHT22;23398;50.928;7.084;2022-09-03T02:08:42;18.70;45.70
37560;DHT22;23398;50.928;7.084;2022-09-03T02:11:09;18.90;46.00
37560;DHT22;23398;50.928;7.084;2022-09-03T02:13:40;19.30;46.50
37560;DHT22;23398;50.928;7.084;2022-09-03T02:16:14;18.70;46.40
37560;DHT22;23398;50.928;7.084;2022-09-03T02:18:47;18.70;46.40
37560;DHT22;23398;50.928;7.084;2022-09-03T02:21:17;18.60;46.70
37560;DHT22;23398;50.928;7.084;2022-09-03T02:23:44;18.50;46.60
37560;DHT22;23398;50.928;7.084;2022-09-03T02:26:12;18.50;46.70
37560;DHT22;23398;50.928;7.084;2022-09-03T02:28:38;18.40;46.80
37560;DHT22;23398;50.928;7.084;2022-09-03T02:31:04;18.40;46.80
37560;DHT22;23398;50.928;7.084;2022-09-03T02:33:37;18.30;47.00
37560;DHT22;23398;50.928;7.084;2022-09-03T02:36:06;18.20;47.00
37560;DHT22;23398;50.928;7.084;2022-09-03T02:38:33;18.20;47.10
37560;DHT22;23398;50.928;7.084;2022-09-03T02:40:58;18.20;47.10
37560;DHT22;23398;50.928;7.084;2022-09-03T02:43:47;18.20;47.40
37560;DHT22;23398;50.928;7.084;2022-09-03T02:46:21;18.10;47.70
37560;DHT22;23398;50.928;7.084;2022-09-03T02:48:47;18.10;47.50
37560;DHT22;23398;50.928;7.084;2022-09-03T02:51:13;18.10;47.50
37560;DHT22;23398;50.928;7.084;2022-09-03T02:53:39;18.10;47.60
37560;DHT22;23398;50.928;7.084;2022-09-03T02:56:05;18.10;47.70
37560;DHT22;23398;50.928;7.084;2022-09-03T02:58:31;18.20;47.70
37560;DHT22;23398;50.928;7.084;2022-09-03T03:00:57;18.20;47.80
37560;DHT22;23398;50.928;7.084;2022-09-03T03:03:23;18.20;47.70
37560;DHT22;23398;50.928;7.084;2022-09-03T03:05:49;18.20;47.70
37560;DHT22;23398;50.928;7.084;2022-09-03T03:08:16;18.80;48.10
37560;DHT22;23398;50.928;7.084;2022-09-03T03:10:46;18.70;47.90
37560;DHT22;23398;50.928;7.084;2022-09-03T03:13:12;18.40;47.70
37560;DHT22;23398;50.928;7.084;2022-09-03T03:15:37;18.40;47.80
37560;DHT22;23398;50.928;7.084;2022-09-03T03:18:03;18.50;47.80
37560;DHT22;23398;50.928;7.084;2022-09-03T03:20:29;18.40;47.60
37560;DHT22;23398;50.928;7.084;2022-09-03T03:22:55;18.40;47.70
37560;DHT22;23398;50.928;7.084;2022-09-03T03:25:20;18.40;47.70
37560;DHT22;23398;50.928;7.084;2022-09-03T03:27:46;18.40;47.70
37560;DHT22;23398;50.928;7.084;2022-09-03T03:30:12;18.40;48.40
37560;DHT22;23398;50.928;7.084;2022-09-03T03:32:38;18.40;47.80
37560;DHT22;23398;50.928;7.084;2022-09-03T03:35:04;18.30;47.80
37560;DHT22;23398;50.928;7.084;2022-09-03T03:37:31;18.40;47.90
37560;DHT22;23398;50.928;7.084;2022-09-03T03:39:57;18.30;47.70
37560;DHT22;23398;50.928;7.084;2022-09-03T03:42:23;18.40;48.60
37560;DHT22;23398;50.928;7.084;2022-09-03T03:44:48;18.50;49.10
37560;DHT22;23398;50.928;7.084;2022-09-03T03:47:14;18.40;48.40
37560;DHT22;23398;50.928;7.084;2022-09-03T03:49:42;18.50;48.30
37560;DHT22;23398;50.928;7.084;2022-09-03T03:52:08;18.30;48.00
37560;DHT22;23398;50.928;7.084;2022-09-03T03:54:34;18.30;48.20
37560;DHT22;23398;50.928;7.084;2022-09-03T03:56:59;18.30;48.20
37560;DHT22;23398;50.928;7.084;2022-09-03T03:59:25;18.40;48.50
37560;DHT22;23398;50.928;7.084;2022-09-03T04:01:53;18.30;49.00
37560;DHT22;23398;50.928;7.084;2022-09-03T04:04:19;18.20;48.50
37560;DHT22;23398;50.928;7.084;2022-09-03T04:06:44;18.20;48.50
37560;DHT22;23398;50.928;7.084;2022-09-03T04:09:10;18.20;48.60
37560;DHT22;23398;50.928;7.084;2022-09-03T04:11:35;18.10;48.70
37560;DHT22;23398;50.928;7.084;2022-09-03T04:14:01;18.20;48.80
37560;DHT22;23398;50.928;7.084;2022-09-03T04:16:27;18.20;48.80
37560;DHT22;23398;50.928;7.084;2022-09-03T04:18:54;18.10;49.00
37560;DHT22;23398;50.928;7.084;2022-09-03T04:21:25;18.20;49.00
37560;DHT22;23398;50.928;7.084;2022-09-03T04:23:52;18.10;49.00
37560;DHT22;23398;50.928;7.084;2022-09-03T04:26:20;18.10;49.10
37560;DHT22;23398;50.928;7.084;2022-09-03T04:28:46;18.10;49.10
37560;DHT22;23398;50.928;7.084;2022-09-03T04:31:16;18.10;49.10
37560;DHT22;23398;50.928;7.084;2022-09-03T04:33:42;18.30;49.30
37560;DHT22;23398;50.928;7.084;2022-09-03T04:36:19;18.20;49.20
37560;DHT22;23398;50.928;7.084;2022-09-03T04:38:46;18.30;49.30
37560;DHT22;23398;50.928;7.084;2022-09-03T04:41:14;18.30;49.10
37560;DHT22;23398;50.928;7.084;2022-09-03T04:43:40;18.40;49.20
37560;DHT22;23398;50.928;7.084;2022-09-03T04:46:08;18.40;49.10
37560;DHT22;23398;50.928;7.084;2022-09-03T04:48:35;18.50;49.10
37560;DHT22;23398;50.928;7.084;2022-09-03T04:51:04;18.60;49.10
37560;DHT22;23398;50.928;7.084;2022-09-03T04:53:35;18.70;49.00
37560;DHT22;23398;50.928;7.084;2022-09-03T04:56:01;18.80;49.10
37560;DHT22;23398;50.928;7.084;2022-09-03T04:58:27;18.80;48.90
37560;DHT22;23398;50.928;7.084;2022-09-03T05:00:53;18.90;48.80
37560;DHT22;23398;50.928;7.084;2022-09-03T05:03:19;18.90;48.70
37560;DHT22;23398;50.928;7.084;2022-09-03T05:05:55;19.30;48.90
37560;DHT22;23398;50.928;7.084;2022-09-03T05:08:21;19.10;48.70
37560;DHT22;23398;50.928;7.084;2022-09-03T05:10:47;19.20;48.60
37560;DHT22;23398;50.928;7.084;2022-09-03T05:13:13;19.30;48.60
37560;DHT22;23398;50.928;7.084;2022-09-03T05:15:39;19.40;48.50
37560;DHT22;23398;50.928;7.084;2022-09-03T05:18:06;19.50;48.50
37560;DHT22;23398;50.928;7.084;2022-09-03T05:20:32;19.50;48.30
37560;DHT22;23398;50.928;7.084;2022-09-03T05:23:01;19.50;48.20
37560;DHT22;23398;50.928;7.084;2022-09-03T05:25:28;19.90;48.40
37560;DHT22;23398;50.928;7.084;2022-09-03T05:27:56;19.60;48.00
37560;DHT22;23398;50.928;7.084;2022-09-03T05:30:22;19.70;48.00
37560;DHT22;23398;50.928;7.084;2022-09-03T05:32:48;19.80;48.60
37560;DHT22;23398;50.928;7.084;2022-09-03T05:35:14;19.90;47.90
37560;DHT22;23398;50.928;7.084;2022-09-03T05:37:40;19.90;47.90
37560;DHT22;23398;50.928;7.084;2022-09-03T05:40:06;19.90;47.80
37560;DHT22;23398;50.928;7.084;2022-09-03T05:42:33;19.90;47.80
37560;DHT22;23398;50.928;7.084;2022-09-03T05:45:11;20.00;47.80
37560;DHT22;23398;50.928;7.084;2022-09-03T05:47:37;20.00;47.70
37560;DHT22;23398;50.928;7.084;2022-09-03T05:50:05;20.70;48.30
37560;DHT22;23398;50.928;7.084;2022-09-03T05:52:31;20.10;47.80
37560;DHT22;23398;50.928;7.084;2022-09-03T05:54:56;20.20;47.80
37560;DHT22;23398;50.928;7.084;2022-09-03T05:57:22;20.30;47.80
37560;DHT22;23398;50.928;7.084;2022-09-03T05:59:47;20.20;47.60
37560;DHT22;23398;50.928;7.084;2022-09-03T06:02:13;20.30;47.70
37560;DHT22;23398;50.928;7.084;2022-09-03T06:04:38;20.50;47.70
37560;DHT22;23398;50.928;7.084;2022-09-03T06:07:04;20.80;47.90
37560;DHT22;23398;50.928;7.084;2022-09-03T06:09:29;20.60;47.60
37560;DHT22;23398;50.928;7.084;2022-09-03T06:11:55;20.70;47.50
37560;DHT22;23398;50.928;7.084;2022-09-03T06:14:20;20.80;47.40
37560;DHT22;23398;50.928;7.084;2022-09-03T06:16:48;21.00;47.30
37560;DHT22;23398;50.928;7.084;2022-09-03T06:19:17;21.10;47.20
37560;DHT22;23398;50.928;7.084;2022-09-03T06:21:43;21.20;47.70
37560;DHT22;23398;50.928;7.084;2022-09-03T06:24:11;21.30;47.00
37560;DHT22;23398;50.928;7.084;2022-09-03T06:26:37;21.40;46.80
37560;DHT22;23398;50.928;7.084;2022-09-03T06:29:03;21.60;46.80
37560;DHT22;23398;50.928;7.084;2022-09-03T06:31:29;21.70;46.80
37560;DHT22;23398;50.928;7.084;2022-09-03T06:33:55;21.70;46.60
37560;DHT22;23398;50.928;7.084;2022-09-03T06:36:22;21.80;46.40
37560;DHT22;23398;50.928;7.084;2022-09-03T06:38:51;22.30;46.60
37560;DHT22;23398;50.928;7.084;2022-09-03T06:41:19;22.00;46.20
37560;DHT22;23398;50.928;7.084;2022-09-03T06:43:46;22.00;46.00
37560;DHT22;23398;50.928;7.084;2022-09-03T06:46:14;22.30;46.20
37560;DHT22;23398;50.928;7.084;2022-09-03T06:48:40;22.30;46.00
37560;DHT22;23398;50.928;7.084;2022-09-03T06:51:14;22.40;45.90
37560;DHT22;23398;50.928;7.084;2022-09-03T06:53:42;23.00;46.70
37560;DHT22;23398;50.928;7.084;2022-09-03T06:56:10;22.70;45.60
37560;DHT22;23398;50.928;7.084;2022-09-03T06:58:46;22.90;45.60
37560;DHT22;23398;50.928;7.084;2022-09-03T07:01:16;23.10;45.50
37560;DHT22;23398;50.928;7.084;2022-09-03T07:03:44;23.30;45.30
37560;DHT22;23398;50.928;7.084;2022-09-03T07:06:14;23.50;45.10
37560;DHT22;23398;50.928;7.084;2022-09-03T07:08:41;23.70;45.00
37560;DHT22;23398;50.928;7.084;2022-09-03T07:11:10;23.90;44.80
37560;DHT22;23398;50.928;7.084;2022-09-03T07:13:37;24.10;44.50
37560;DHT22;23398;50.928;7.084;2022-09-03T07:16:07;24.40;44.90
37560;DHT22;23398;50.928;7.084;2022-09-03T07:18:34;24.60;43.80
37560;DHT22;23398;50.928;7.084;2022-09-03T07:21:01;24.80;43.70
37560;DHT22;23398;50.928;7.084;2022-09-03T07:23:28;25.00;43.30
37560;DHT22;23398;50.928;7.084;2022-09-03T07:25:59;25.20;43.10
37560;DHT22;23398;50.928;7.084;2022-09-03T07:28:26;25.40;42.80
37560;DHT22;23398;50.928;7.084;2022-09-03T07:30:53;25.60;42.60
37560;DHT22;23398;50.928;7.084;2022-09-03T07:33:19;26.00;42.60
37560;DHT22;23398;50.928;7.084;2022-09-03T07:35:46;26.00;42.20
37560;DHT22;23398;50.928;7.084;2022-09-03T07:38:16;26.30;41.70
37560;DHT22;23398;50.928;7.084;2022-09-03T07:40:43;26.50;41.30
37560;DHT22;23398;50.928;7.084;2022-09-03T07:43:08;26.90;41.40
37560;DHT22;23398;50.928;7.084;2022-09-03T07:45:34;27.10;41.00
37560;DHT22;23398;50.928;7.084;2022-09-03T07:48:02;27.40;40.70
37560;DHT22;23398;50.928;7.084;2022-09-03T07:50:28;27.70;39.80
37560;DHT22;23398;50.928;7.084;2022-09-03T07:52:57;27.90;39.30
37560;DHT22;23398;50.928;7.084;2022-09-03T07:55:23;28.10;39.60
37560;DHT22;23398;50.928;7.084;2022-09-03T07:57:53;28.50;39.70
37560;DHT22;23398;50.928;7.084;2022-09-03T08:00:19;29.00;39.60
37560;DHT22;23398;50.928;7.084;2022-09-03T08:02:45;29.80;38.90
37560;DHT22;23398;50.928;7.084;2022-09-03T08:05:10;30.60;39.00
37560;DHT22;23398;50.928;7.084;2022-09-03T08:07:36;31.60;37.70
37560;DHT22;23398;50.928;7.084;2022-09-03T08:10:01;32.60;36.50
37560;DHT22;23398;50.928;7.084;2022-09-03T08:12:27;33.60;35.30
37560;DHT22;23398;50.928;7.084;2022-09-03T08:14:53;34.40;33.70
37560;DHT22;23398;50.928;7.084;2022-09-03T08:17:19;35.00;32.20
37560;DHT22;23398;50.928;7.084;2022-09-03T08:19:44;35.60;30.80
37560;DHT22;23398;50.928;7.084;2022-09-03T08:22:10;35.80;29.90
37560;DHT22;23398;50.928;7.084;2022-09-03T08:24:36;35.80;29.50
37560;DHT22;23398;50.928;7.084;2022-09-03T08:27:01;35.60;29.60
37560;DHT22;23398;50.928;7.084;2022-09-03T08:29:27;35.40;29.40
37560;DHT22;23398;50.928;7.084;2022-09-03T08:31:53;34.90;29.30
37560;DHT22;23398;50.928;7.084;2022-09-03T08:34:19;34.40;29.50
37560;DHT22;23398;50.928;7.084;2022-09-03T08:36:45;33.90;29.90
37560;DHT22;23398;50.928;7.084;2022-09-03T08:39:11;33.30;30.20
37560;DHT22;23398;50.928;7.084;2022-09-03T08:44:33;32.10;31.00
37560;DHT22;23398;50.928;7.084;2022-09-03T08:50:17;30.90;33.50
37560;DHT22;23398;50.928;7.084;2022-09-03T08:52:47;30.40;34.00
37560;DHT22;23398;50.928;7.084;2022-09-03T08:55:32;30.00;34.60
37560;DHT22;23398;50.928;7.084;2022-09-03T08:58:19;29.40;35.20
37560;DHT22;23398;50.928;7.084;2022-09-03T09:06:39;28.30;37.30
37560;DHT22;23398;50.928;7.084;2022-09-03T09:12:15;27.70;38.60
37560;DHT22;23398;50.928;7.084;2022-09-03T09:15:05;27.50;42.00
37560;DHT22;23398;50.928;7.084;2022-09-03T09:20:21;26.80;42.40
37560;DHT22;23398;50.928;7.084;2022-09-03T09:23:00;26.40;47.50
37560;DHT22;23398;50.928;7.084;2022-09-03T09:25:27;26.00;48.30
37560;DHT22;23398;50.928;7.084;2022-09-03T09:28:03;25.60;48.80
37560;DHT22;23398;50.928;7.084;2022-09-03T09:30:32;25.30;48.70
37560;DHT22;23398;50.928;7.084;2022-09-03T09:32:58;24.90;49.00
37560;DHT22;23398;50.928;7.084;2022-09-03T09:35:25;24.70;49.80
37560;DHT22;23398;50.928;7.084;2022-09-03T09:37:57;24.40;50.20
37560;DHT22;23398;50.928;7.084;2022-09-03T09:40:32;24.30;49.80
37560;DHT22;23398;50.928;7.084;2022-09-03T09:43:17;24.20;49.60
37560;DHT22;23398;50.928;7.084;2022-09-03T09:45:47;24.20;49.80
37560;DHT22;23398;50.928;7.084;2022-09-03T09:48:28;24.20;49.60
37560;DHT22;23398;50.928;7.084;2022-09-03T09:51:11;24.30;49.50
37560;DHT22;23398;50.928;7.084;2022-09-03T09:53:38;24.30;49.40
37560;DHT22;23398;50.928;7.084;2022-09-03T09:56:04;24.50;49.60
37560;DHT22;23398;50.928;7.084;2022-09-03T09:58:31;24.60;49.70
37560;DHT22;23398;50.928;7.084;2022-09-03T10:03:40;24.70;50.30
37560;DHT22;23398;50.928;7.084;2022-09-03T10:06:13;24.80;50.10
37560;DHT22;23398;50.928;7.084;2022-09-03T10:11:33;25.20;50.70
37560;DHT22;23398;50.928;7.084;2022-09-03T10:14:02;25.50;50.40
37560;DHT22;23398;50.928;7.084;2022-09-03T10:16:34;25.70;49.20
37560;DHT22;23398;50.928;7.084;2022-09-03T10:26:45;27.10;46.70
37560;DHT22;23398;50.928;7.084;2022-09-03T10:29:16;27.60;45.60
37560;DHT22;23398;50.928;7.084;2022-09-03T10:32:03;27.90;44.70
37560;DHT22;23398;50.928;7.084;2022-09-03T10:37:42;28.50;43.20
37560;DHT22;23398;50.928;7.084;2022-09-03T10:46:16;29.30;42.10
37560;DHT22;23398;50.928;7.084;2022-09-03T10:51:28;29.70;41.30
37560;DHT22;23398;50.928;7.084;2022-09-03T10:54:04;29.80;41.20
37560;DHT22;23398;50.928;7.084;2022-09-03T10:57:00;29.90;40.80
37560;DHT22;23398;50.928;7.084;2022-09-03T10:59:31;29.90;41.00
37560;DHT22;23398;50.928;7.084;2022-09-03T11:07:20;30.30;40.60
37560;DHT22;23398;50.928;7.084;2022-09-03T11:10:05;30.40;40.70
37560;DHT22;23398;50.928;7.084;2022-09-03T11:15:32;30.60;40.00
37560;DHT22;23398;50.928;7.084;2022-09-03T11:20:48;30.80;39.80
37560;DHT22;23398;50.928;7.084;2022-09-03T11:23:15;30.90;39.60
37560;DHT22;23398;50.928;7.084;2022-09-03T11:25:55;31.00;39.60
37560;DHT22;23398;50.928;7.084;2022-09-03T11:36:40;30.70;39.30
37560;DHT22;23398;50.928;7.084;2022-09-03T11:39:15;30.60;39.50
37560;DHT22;23398;50.928;7.084;2022-09-03T11:41:42;30.50;39.70
37560;DHT22;23398;50.928;7.084;2022-09-03T11:44:18;30.40;39.60
37560;DHT22;23398;50.928;7.084;2022-09-03T11:46:56;30.30;39.70
37560;DHT22;23398;50.928;7.084;2022-09-03T11:49:31;30.10;39.70
37560;DHT22;23398;50.928;7.084;2022-09-03T11:52:02;30.00;40.20
37560;DHT22;23398;50.928;7.084;2022-09-03T11:54:42;29.80;40.20
37560;DHT22;23398;50.928;7.084;2022-09-03T11:57:12;29.70;40.30
37560;DHT22;23398;50.928;7.084;2022-09-03T11:59:40;29.60;41.10
37560;DHT22;23398;50.928;7.084;2022-09-03T12:02:28;29.50;40.50
37560;DHT22;23398;50.928;7.084;2022-09-03T12:05:16;29.40;40.70
37560;DHT22;23398;50.928;7.084;2022-09-03T12:08:06;29.30;40.90
37560;DHT22;23398;50.928;7.084;2022-09-03T12:16:21;28.90;41.40
37560;DHT22;23398;50.928;7.084;2022-09-03T12:18:49;28.80;41.80
37560;DHT22;23398;50.928;7.084;2022-09-03T12:21:18;28.70;42.00
37560;DHT22;23398;50.928;7.084;2022-09-03T12:23:51;28.60;42.10
37560;DHT22;23398;50.928;7.084;2022-09-03T12:26:20;28.60;42.10
37560;DHT22;23398;50.928;7.084;2022-09-03T12:28:58;28.50;42.20
37560;DHT22;23398;50.928;7.084;2022-09-03T12:31:29;28.40;42.40
37560;DHT22;23398;50.928;7.084;2022-09-03T12:34:07;28.40;42.50
37560;DHT22;23398;50.928;7.084;2022-09-03T12:36:51;28.30;42.50
37560;DHT22;23398;50.928;7.084;2022-09-03T12:39:21;28.30;42.70
37560;DHT22;23398;50.928;7.084;2022-09-03T12:44:37;28.20;42.90
37560;DHT22;23398;50.928;7.084;2022-09-03T12:49:36;28.10;43.20
37560;DHT22;23398;50.928;7.084;2022-09-03T12:52:20;28.10;43.30
37560;DHT22;23398;50.928;7.084;2022-09-03T12:54:58;28.10;43.40
37560;DHT22;23398;50.928;7.084;2022-09-03T12:57:39;28.10;43.50
37560;DHT22;23398;50.928;7.084;2022-09-03T13:00:08;28.10;43.60
37560;DHT22;23398;50.928;7.084;2022-09-03T13:05:15;28.10;43.90
37560;DHT22;23398;50.928;7.084;2022-09-03T13:07:46;28.10;44.30
37560;DHT22;23398;50.928;7.084;2022-09-03T13:10:26;28.10;44.10
37560;DHT22;23398;50.928;7.084;2022-09-03T13:13:01;28.20;44.30
37560;DHT22;23398;50.928;7.084;2022-09-03T13:15:28;28.20;44.30
37560;DHT22;23398;50.928;7.084;2022-09-03T13:18:18;28.30;44.40
37560;DHT22;23398;50.928;7.084;2022-09-03T13:26:08;28.40;44.60
37560;DHT22;23398;50.928;7.084;2022-09-03T13:31:29;28.40;44.70
37560;DHT22;23398;50.928;7.084;2022-09-03T13:34:30;28.40;44.80
37560;DHT22;23398;50.928;7.084;2022-09-03T13:40:15;28.40;45.00
37560;DHT22;23398;50.928;7.084;2022-09-03T13:42:55;28.40;45.20
37560;DHT22;23398;50.928;7.084;2022-09-03T13:45:36;28.50;45.20
37560;DHT22;23398;50.928;7.084;2022-09-03T13:48:15;28.40;45.20
37560;DHT22;23398;50.928;7.084;2022-09-03T13:51:23;28.50;45.20
37560;DHT22;23398;50.928;7.084;2022-09-03T14:02:27;28.40;45.30
37560;DHT22;23398;50.928;7.084;2022-09-03T14:10:21;28.40;45.70
37560;DHT22;23398;50.928;7.084;2022-09-03T14:13:01;28.50;45.80
37560;DHT22;23398;50.928;7.084;2022-09-03T14:15:35;28.50;45.80
37560;DHT22;23398;50.928;7.084;2022-09-03T14:21:06;28.50;45.80
37560;DHT22;23398;50.928;7.084;2022-09-03T14:23:45;28.60;45.60
37560;DHT22;23398;50.928;7.084;2022-09-03T14:26:17;28.70;45.70
37560;DHT22;23398;50.928;7.084;2022-09-03T14:28:48;28.70;45.70
37560;DHT22;23398;50.928;7.084;2022-09-03T14:37:16;29.00;45.30
37560;DHT22;23398;50.928;7.084;2022-09-03T14:56:16;29.70;44.20
37560;DHT22;23398;50.928;7.084;2022-09-03T15:01:37;29.80;44.30
37560;DHT22;23398;50.928;7.084;2022-09-03T15:12:47;29.80;44.10
37560;DHT22;23398;50.928;7.084;2022-09-03T15:15:31;29.80;44.10
37560;DHT22;23398;50.928;7.084;2022-09-03T15:20:49;29.80;44.20
37560;DHT22;23398;50.928;7.084;2022-09-03T15:36:49;29.80;44.30
37560;DHT22;23398;50.928;7.084;2022-09-03T15:39:26;29.80;44.40
37560;DHT22;23398;50.928;7.084;2022-09-03T15:41:56;29.80;44.40
37560;DHT22;23398;50.928;7.084;2022-09-03T15:44:25;29.80;44.40
37560;DHT22;23398;50.928;7.084;2022-09-03T15:52:29;29.70;44.40
37560;DHT22;23398;50.928;7.084;2022-09-03T15:55:29;29.70;44.50
37560;DHT22;23398;50.928;7.084;2022-09-03T15:58:27;29.60;44.60
37560;DHT22;23398;50.928;7.084;2022-09-03T16:01:03;29.60;45.20
37560;DHT22;23398;50.928;7.084;2022-09-03T16:03:36;29.50;44.70
37560;DHT22;23398;50.928;7.084;2022-09-03T16:06:19;29.50;44.70
37560;DHT22;23398;50.928;7.084;2022-09-03T16:08:58;29.40;45.00
37560;DHT22;23398;50.928;7.084;2022-09-03T16:11:43;29.40;44.60
37560;DHT22;23398;50.928;7.084;2022-09-03T16:14:20;29.40;44.60
37560;DHT22;23398;50.928;7.084;2022-09-03T16:23:01;29.20;44.80
37560;DHT22;23398;50.928;7.084;2022-09-03T16:25:28;29.10;45.00
37560;DHT22;23398;50.928;7.084;2022-09-03T16:28:14;29.10;45.30
37560;DHT22;23398;50.928;7.084;2022-09-03T16:33:39;28.90;46.30
37560;DHT22;23398;50.928;7.084;2022-09-03T16:36:24;28.80;46.80
37560;DHT22;23398;50.928;7.084;2022-09-03T16:39:02;28.80;47.40
37560;DHT22;23398;50.928;7.084;2022-09-03T16:57:45;28.00;48.40
37560;DHT22;23398;50.928;7.084;2022-09-03T17:00:18;27.90;49.40
37560;DHT22;23398;50.928;7.084;2022-09-03T17:11:18;27.50;53.00
37560;DHT22;23398;50.928;7.084;2022-09-03T17:24:32;26.70;55.50
37560;DHT22;23398;50.928;7.084;2022-09-03T17:29:54;26.30;56.20
37560;DHT22;23398;50.928;7.084;2022-09-03T17:49:28;25.20;59.40
37560;DHT22;23398;50.928;7.084;2022-09-03T17:52:11;25.10;60.00
37560;DHT22;23398;50.928;7.084;2022-09-03T17:54:43;25.00;59.80
37560;DHT22;23398;50.928;7.084;2022-09-03T18:02:32;24.70;60.10
37560;DHT22;23398;50.928;7.084;2022-09-03T18:05:18;24.60;60.20
37560;DHT22;23398;50.928;7.084;2022-09-03T18:16:33;24.10;60.60
37560;DHT22;23398;50.928;7.084;2022-09-03T18:19:05;23.90;61.60
37560;DHT22;23398;50.928;7.084;2022-09-03T18:21:36;23.80;61.40
37560;DHT22;23398;50.928;7.084;2022-09-03T18:24:53;23.70;61.40
37560;DHT22;23398;50.928;7.084;2022-09-03T18:27:45;23.50;61.90
37560;DHT22;23398;50.928;7.084;2022-09-03T18:30:32;23.40;61.40
37560;DHT22;23398;50.928;7.084;2022-09-03T18:33:22;23.20;61.80
37560;DHT22;23398;50.928;7.084;2022-09-03T18:36:07;23.10;62.20
37560;DHT22;23398;50.928;7.084;2022-09-03T18:39:04;23.00;62.30
37560;DHT22;23398;50.928;7.084;2022-09-03T18:42:10;22.90;62.70
37560;DHT22;23398;50.928;7.084;2022-09-03T18:45:25;22.70;63.30
37560;DHT22;23398;50.928;7.084;2022-09-03T18:51:31;22.50;64.40
37560;DHT22;23398;50.928;7.084;2022-09-03T19:01:12;22.10;65.00
37560;DHT22;23398;50.928;7.084;2022-09-03T19:04:29;22.00;64.80
37560;DHT22;23398;50.928;7.084;2022-09-03T19:10:47;21.80;65.90
37560;DHT22;23398;50.928;7.084;2022-09-03T19:13:36;21.70;65.70
37560;DHT22;23398;50.928;7.084;2022-09-03T19:16:50;21.60;65.80
37560;DHT22;23398;50.928;7.084;2022-09-03T19:22:39;21.40;66.80
37560;DHT22;23398;50.928;7.084;2022-09-03T19:25:25;21.40;67.30
37560;DHT22;23398;50.928;7.084;2022-09-03T19:28:22;21.30;67.40
37560;DHT22;23398;50.928;7.084;2022-09-03T19:40:26;21.10;69.10
37560;DHT22;23398;50.928;7.084;2022-09-03T19:55:07;20.80;69.40
37560;DHT22;23398;50.928;7.084;2022-09-03T19:57:56;20.80;69.90
37560;DHT22;23398;50.928;7.084;2022-09-03T20:00:42;20.90;70.80
37560;DHT22;23398;50.928;7.084;2022-09-03T20:03:26;20.70;70.70
37560;DHT22;23398;50.928;7.084;2022-09-03T20:06:12;20.70;71.20
37560;DHT22;23398;50.928;7.084;2022-09-03T20:09:07;20.60;71.40
37560;DHT22;23398;50.928;7.084;2022-09-03T20:11:56;20.60;72.20
37560;DHT22;23398;50.928;7.084;2022-09-03T20:14:23;20.60;72.10
37560;DHT22;23398;50.928;7.084;2022-09-03T20:22:23;20.70;73.30
37560;DHT22;23398;50.928;7.084;2022-09-03T20:30:21;20.50;73.50
37560;DHT22;23398;50.928;7.084;2022-09-03T20:49:48;20.40;74.40
37560;DHT22;23398;50.928;7.084;2022-09-03T20:52:20;20.30;75.70
37560;DHT22;23398;50.928;7.084;2022-09-03T20:55:04;20.50;74.50
37560;DHT22;23398;50.928;7.084;2022-09-03T21:00:16;20.30;74.30
37560;DHT22;23398;50.928;7.084;2022-09-03T21:05:33;20.20;74.70
37560;DHT22;23398;50.928;7.084;2022-09-03T21:10:49;20.10;74.70
37560;DHT22;23398;50.928;7.084;2022-09-03T21:21:55;19.90;74.10
37560;DHT22;23398;50.928;7.084;2022-09-03T21:24:35;19.90;74.80
37560;DHT22;23398;50.928;7.084;2022-09-03T21:27:37;19.80;74.90
37560;DHT22;23398;50.928;7.084;2022-09-03T21:30:07;19.70;75.20
37560;DHT22;23398;50.928;7.084;2022-09-03T21:32:53;19.70;74.60
37560;DHT22;23398;50.928;7.084;2022-09-03T21:35:30;19.70;75.80
37560;DHT22;23398;50.928;7.084;2022-09-03T21:38:16;19.60;75.80
37560;DHT22;23398;50.928;7.084;2022-09-03T21:40:57;19.60;76.40
37560;DHT22;23398;50.928;7.084;2022-09-03T21:43:31;19.60;76.20
37560;DHT22;23398;50.928;7.084;2022-09-03T21:46:08;19.50;75.90
37560;DHT22;23398;50.928;7.084;2022-09-03T21:48:46;19.50;76.10
37560;DHT22;23398;50.928;7.084;2022-09-03T21:51:17;19.40;75.80
37560;DHT22;23398;50.928;7.084;2022-09-03T21:53:52;19.40;76.00
37560;DHT22;23398;50.928;7.084;2022-09-03T21:56:37;19.30;75.90
37560;DHT22;23398;50.928;7.084;2022-09-03T22:02:16;19.30;76.60
37560;DHT22;23398;50.928;7.084;2022-09-03T22:04:46;19.20;77.50
37560;DHT22;23398;50.928;7.084;2022-09-03T22:10:23;19.20;77.40
37560;DHT22;23398;50.928;7.084;2022-09-03T22:15:41;19.10;77.40
37560;DHT22;23398;50.928;7.084;2022-09-03T22:26:18;19.10;78.40
37560;DHT22;23398;50.928;7.084;2022-09-03T22:29:13;19.10;78.50
37560;DHT22;23398;50.928;7.084;2022-09-03T22:31:47;19.00;78.90
37560;DHT22;23398;50.928;7.084;2022-09-03T22:34:45;19.00;78.60
37560;DHT22;23398;50.928;7.084;2022-09-03T22:40:23;19.00;80.10
37560;DHT22;23398;50.928;7.084;2022-09-03T22:42:53;19.10;79.80
37560;DHT22;23398;50.928;7.084;2022-09-03T22:56:11;19.00;80.40